sensor_id;sensor_type;location;lat;lon;timestamp;P1;durP1;ratioP1;P2;durP2;ratioP2
22166;SDS011;11249;52.468;13.776;2022-09-27T00:00:06;3.05;;;2.22;;
22166;SDS011;11249;52.468;13.776;2022-09-27T00:02:32;2.20;;;2.00;;
22166;SDS011;11249;52.468;13.776;2022-09-27T00:04:59;3.60;;;2.30;;
22166;SDS011;11249;52.468;13.776;2022-09-27T00:07:26;2.30;;;2.00;;
22166;SDS011;11249;52.468;13.776;2022-09-27T00:09:53;2.25;;;2.08;;
22166;SDS011;11249;52.468;13.776;2022-09-27T00:12:20;3.50;;;2.25;;
22166;SDS011;11249;52.468;13.776;2022-09-27T00:14:46;3.13;;;2.65;;
22166;SDS011;11249;52.468;13.776;2022-09-27T00:17:13;2.92;;;2.20;;
22166;SDS011;11249;52.468;13.776;2022-09-27T00:19:39;3.63;;;2.15;;
22166;SDS011;11249;52.468;13.776;2022-09-27T00:22:06;4.40;;;2.50;;
22166;SDS011;11249;52.468;13.776;2022-09-27T00:24:33;4.80;;;2.40;;
22166;SDS011;11249;52.468;13.776;2022-09-27T00:26:59;5.22;;;2.17;;
22166;SDS011;11249;52.468;13.776;2022-09-27T00:29:26;3.65;;;2.15;;
22166;SDS011;11249;52.468;13.776;2022-09-27T00:31:53;3.55;;;2.47;;
22166;SDS011;11249;52.468;13.776;2022-09-27T00:34:21;2.63;;;1.65;;
22166;SDS011;11249;52.468;13.776;2022-09-27T00:36:50;5.20;;;2.50;;
22166;SDS011;11249;52.468;13.776;2022-09-27T00:39:17;5.28;;;2.55;;
22166;SDS011;11249;52.468;13.776;2022-09-27T00:41:44;3.60;;;2.50;;
22166;SDS011;11249;52.468;13.776;2022-09-27T00:50:04;4.15;;;2.70;;
22166;SDS011;11249;52.468;13.776;2022-09-27T00:55:11;3.00;;;2.22;;
22166;SDS011;11249;52.468;13.776;2022-09-27T00:57:43;3.13;;;2.35;;
22166;SDS011;11249;52.468;13.776;2022-09-27T01:00:11;6.25;;;2.50;;
22166;SDS011;11249;52.468;13.776;2022-09-27T01:02:41;4.40;;;2.17;;
22166;SDS011;11249;52.468;13.776;2022-09-27T01:05:13;2.15;;;1.70;;
22166;SDS011;11249;52.468;13.776;2022-09-27T01:07:41;2.70;;;2.20;;
22166;SDS011;11249;52.468;13.776;2022-09-27T01:10:08;4.75;;;1.98;;
22166;SDS011;11249;52.468;13.776;2022-09-27T01:12:52;3.70;;;2.35;;
22166;SDS011;11249;52.468;13.776;2022-09-27T01:15:56;3.58;;;2.40;;
22166;SDS011;11249;52.468;13.776;2022-09-27T01:18:29;6.15;;;2.47;;
22166;SDS011;11249;52.468;13.776;2022-09-27T01:21:27;4.10;;;2.22;;
22166;SDS011;11249;52.468;13.776;2022-09-27T01:32:38;3.78;;;2.35;;
22166;SDS011;11249;52.468;13.776;2022-09-27T01:42:05;3.42;;;2.20;;
22166;SDS011;11249;52.468;13.776;2022-09-27T01:44:51;3.05;;;2.00;;
22166;SDS011;11249;52.468;13.776;2022-09-27T01:47:28;4.43;;;2.63;;
22166;SDS011;11249;52.468;13.776;2022-09-27T01:50:07;5.05;;;2.22;;
22166;SDS011;11249;52.468;13.776;2022-09-27T01:52:46;2.30;;;2.10;;
22166;SDS011;11249;52.468;13.776;2022-09-27T01:55:17;3.65;;;2.40;;
22166;SDS011;11249;52.468;13.776;2022-09-27T01:57:50;2.92;;;2.03;;
22166;SDS011;11249;52.468;13.776;2022-09-27T02:00:25;3.58;;;2.10;;
22166;SDS011;11249;52.468;13.776;2022-09-27T02:02:57;2.78;;;1.88;;
22166;SDS011;11249;52.468;13.776;2022-09-27T02:05:31;3.10;;;1.90;;
22166;SDS011;11249;52.468;13.776;2022-09-27T02:08:14;4.35;;;2.22;;
22166;SDS011;11249;52.468;13.776;2022-09-27T02:10:45;2.55;;;1.60;;
22166;SDS011;11249;52.468;13.776;2022-09-27T02:15:51;2.65;;;2.08;;
22166;SDS011;11249;52.468;13.776;2022-09-27T02:18:38;3.03;;;2.30;;
22166;SDS011;11249;52.468;13.776;2022-09-27T02:21:22;2.50;;;1.80;;
22166;SDS011;11249;52.468;13.776;2022-09-27T02:23:55;3.58;;;1.95;;
22166;SDS011;11249;52.468;13.776;2022-09-27T02:26:31;2.20;;;2.00;;
22166;SDS011;11249;52.468;13.776;2022-09-27T02:29:09;4.93;;;2.00;;
22166;SDS011;11249;52.468;13.776;2022-09-27T02:31:41;5.05;;;2.25;;
22166;SDS011;11249;52.468;13.776;2022-09-27T02:34:13;2.33;;;2.13;;
22166;SDS011;11249;52.468;13.776;2022-09-27T02:36:47;3.70;;;2.40;;
22166;SDS011;11249;52.468;13.776;2022-09-27T02:39:15;5.60;;;2.10;;
22166;SDS011;11249;52.468;13.776;2022-09-27T02:41:43;2.72;;;1.90;;
22166;SDS011;11249;52.468;13.776;2022-09-27T02:44:10;3.40;;;2.15;;
22166;SDS011;11249;52.468;13.776;2022-09-27T02:46:53;2.95;;;2.00;;
22166;SDS011;11249;52.468;13.776;2022-09-27T02:54:59;3.60;;;1.98;;
22166;SDS011;11249;52.468;13.776;2022-09-27T03:00:13;3.28;;;1.95;;
22166;SDS011;11249;52.468;13.776;2022-09-27T03:05:31;3.40;;;2.20;;
22166;SDS011;11249;52.468;13.776;2022-09-27T03:08:03;2.33;;;1.70;;
22166;SDS011;11249;52.468;13.776;2022-09-27T03:10:30;2.67;;;1.80;;
22166;SDS011;11249;52.468;13.776;2022-09-27T03:12:57;2.30;;;2.10;;
22166;SDS011;11249;52.468;13.776;2022-09-27T03:15:23;3.80;;;2.10;;
22166;SDS011;11249;52.468;13.776;2022-09-27T03:17:50;5.90;;;2.17;;
22166;SDS011;11249;52.468;13.776;2022-09-27T03:20:17;2.40;;;2.20;;
22166;SDS011;11249;52.468;13.776;2022-09-27T03:22:43;2.92;;;2.00;;
22166;SDS011;11249;52.468;13.776;2022-09-27T03:25:10;2.80;;;2.10;;
22166;SDS011;11249;52.468;13.776;2022-09-27T03:27:37;4.28;;;2.30;;
22166;SDS011;11249;52.468;13.776;2022-09-27T03:30:04;3.38;;;2.35;;
22166;SDS011;11249;52.468;13.776;2022-09-27T03:32:31;3.20;;;1.92;;
22166;SDS011;11249;52.468;13.776;2022-09-27T03:34:59;3.80;;;2.08;;
22166;SDS011;11249;52.468;13.776;2022-09-27T03:37:25;2.33;;;2.00;;
22166;SDS011;11249;52.468;13.776;2022-09-27T03:39:54;2.63;;;2.25;;
22166;SDS011;11249;52.468;13.776;2022-09-27T03:42:21;6.70;;;2.42;;
22166;SDS011;11249;52.468;13.776;2022-09-27T03:44:47;5.65;;;2.35;;
22166;SDS011;11249;52.468;13.776;2022-09-27T03:47:16;6.78;;;2.45;;
22166;SDS011;11249;52.468;13.776;2022-09-27T03:49:43;5.13;;;2.40;;
22166;SDS011;11249;52.468;13.776;2022-09-27T03:52:09;3.63;;;2.33;;
22166;SDS011;11249;52.468;13.776;2022-09-27T03:54:36;3.75;;;2.30;;
22166;SDS011;11249;52.468;13.776;2022-09-27T03:57:03;3.47;;;2.30;;
22166;SDS011;11249;52.468;13.776;2022-09-27T03:59:30;2.40;;;2.20;;
22166;SDS011;11249;52.468;13.776;2022-09-27T04:01:57;3.03;;;2.10;;
22166;SDS011;11249;52.468;13.776;2022-09-27T04:04:24;4.75;;;2.53;;
22166;SDS011;11249;52.468;13.776;2022-09-27T04:06:50;2.70;;;2.25;;
22166;SDS011;11249;52.468;13.776;2022-09-27T04:09:17;7.95;;;2.90;;
22166;SDS011;11249;52.468;13.776;2022-09-27T04:11:44;4.45;;;2.80;;
22166;SDS011;11249;52.468;13.776;2022-09-27T04:14:10;6.88;;;2.55;;
22166;SDS011;11249;52.468;13.776;2022-09-27T04:16:38;4.13;;;2.60;;
22166;SDS011;11249;52.468;13.776;2022-09-27T04:19:06;4.45;;;2.58;;
22166;SDS011;11249;52.468;13.776;2022-09-27T04:21:33;2.65;;;2.30;;
22166;SDS011;11249;52.468;13.776;2022-09-27T04:24:00;4.35;;;2.25;;
22166;SDS011;11249;52.468;13.776;2022-09-27T04:26:27;4.78;;;2.50;;
22166;SDS011;11249;52.468;13.776;2022-09-27T04:28:54;2.67;;;2.38;;
22166;SDS011;11249;52.468;13.776;2022-09-27T04:31:20;3.05;;;2.25;;
22166;SDS011;11249;52.468;13.776;2022-09-27T04:33:48;6.32;;;2.70;;
22166;SDS011;11249;52.468;13.776;2022-09-27T04:36:16;2.55;;;2.28;;
22166;SDS011;11249;52.468;13.776;2022-09-27T04:38:55;3.25;;;2.80;;
22166;SDS011;11249;52.468;13.776;2022-09-27T04:41:24;3.25;;;2.20;;
22166;SDS011;11249;52.468;13.776;2022-09-27T04:43:51;3.50;;;2.10;;
22166;SDS011;11249;52.468;13.776;2022-09-27T04:46:24;5.72;;;2.78;;
22166;SDS011;11249;52.468;13.776;2022-09-27T04:48:52;3.42;;;2.25;;
22166;SDS011;11249;52.468;13.776;2022-09-27T04:51:18;4.18;;;2.53;;
22166;SDS011;11249;52.468;13.776;2022-09-27T04:53:45;3.08;;;2.30;;
22166;SDS011;11249;52.468;13.776;2022-09-27T04:56:12;7.03;;;2.42;;
22166;SDS011;11249;52.468;13.776;2022-09-27T04:58:41;2.70;;;2.28;;
22166;SDS011;11249;52.468;13.776;2022-09-27T05:01:07;4.45;;;2.78;;
22166;SDS011;11249;52.468;13.776;2022-09-27T05:03:34;2.97;;;2.42;;
22166;SDS011;11249;52.468;13.776;2022-09-27T05:06:01;5.13;;;2.80;;
22166;SDS011;11249;52.468;13.776;2022-09-27T05:08:28;2.90;;;2.55;;
22166;SDS011;11249;52.468;13.776;2022-09-27T05:10:55;2.75;;;2.30;;
22166;SDS011;11249;52.468;13.776;2022-09-27T05:13:21;4.03;;;2.45;;
22166;SDS011;11249;52.468;13.776;2022-09-27T05:15:48;3.05;;;2.60;;
22166;SDS011;11249;52.468;13.776;2022-09-27T05:18:15;3.08;;;1.98;;
22166;SDS011;11249;52.468;13.776;2022-09-27T05:20:43;8.30;;;2.67;;
22166;SDS011;11249;52.468;13.776;2022-09-27T05:23:10;3.90;;;2.55;;
22166;SDS011;11249;52.468;13.776;2022-09-27T05:25:37;2.95;;;2.50;;
22166;SDS011;11249;52.468;13.776;2022-09-27T05:28:03;4.75;;;2.53;;
22166;SDS011;11249;52.468;13.776;2022-09-27T05:30:31;5.07;;;2.28;;
22166;SDS011;11249;52.468;13.776;2022-09-27T05:32:57;4.57;;;2.33;;
22166;SDS011;11249;52.468;13.776;2022-09-27T05:35:24;3.95;;;2.38;;
22166;SDS011;11249;52.468;13.776;2022-09-27T05:37:55;4.82;;;2.60;;
22166;SDS011;11249;52.468;13.776;2022-09-27T05:40:23;5.15;;;2.63;;
22166;SDS011;11249;52.468;13.776;2022-09-27T05:43:07;4.43;;;2.50;;
22166;SDS011;11249;52.468;13.776;2022-09-27T05:45:34;3.05;;;2.28;;
22166;SDS011;11249;52.468;13.776;2022-09-27T05:48:01;2.80;;;2.15;;
22166;SDS011;11249;52.468;13.776;2022-09-27T05:50:28;4.53;;;2.00;;
22166;SDS011;11249;52.468;13.776;2022-09-27T05:52:54;3.22;;;2.67;;
22166;SDS011;11249;52.468;13.776;2022-09-27T05:55:21;2.85;;;2.53;;
22166;SDS011;11249;52.468;13.776;2022-09-27T06:00:25;2.95;;;2.30;;
22166;SDS011;11249;52.468;13.776;2022-09-27T06:02:53;4.05;;;2.60;;
22166;SDS011;11249;52.468;13.776;2022-09-27T06:05:22;4.15;;;2.40;;
22166;SDS011;11249;52.468;13.776;2022-09-27T06:07:49;3.17;;;2.42;;
22166;SDS011;11249;52.468;13.776;2022-09-27T06:10:17;5.15;;;2.60;;
22166;SDS011;11249;52.468;13.776;2022-09-27T06:12:45;3.22;;;2.60;;
22166;SDS011;11249;52.468;13.776;2022-09-27T06:15:11;5.10;;;2.97;;
22166;SDS011;11249;52.468;13.776;2022-09-27T06:17:39;3.65;;;2.30;;
22166;SDS011;11249;52.468;13.776;2022-09-27T06:20:06;3.83;;;2.85;;
22166;SDS011;11249;52.468;13.776;2022-09-27T06:22:35;3.05;;;2.47;;
22166;SDS011;11249;52.468;13.776;2022-09-27T06:25:02;4.68;;;3.40;;
22166;SDS011;11249;52.468;13.776;2022-09-27T06:27:30;4.75;;;2.90;;
22166;SDS011;11249;52.468;13.776;2022-09-27T06:29:57;5.57;;;2.92;;
22166;SDS011;11249;52.468;13.776;2022-09-27T06:32:24;4.78;;;2.78;;
22166;SDS011;11249;52.468;13.776;2022-09-27T06:34:51;4.60;;;2.50;;
22166;SDS011;11249;52.468;13.776;2022-09-27T06:37:18;7.22;;;3.08;;
22166;SDS011;11249;52.468;13.776;2022-09-27T06:39:44;3.65;;;3.10;;
22166;SDS011;11249;52.468;13.776;2022-09-27T06:42:14;5.43;;;3.00;;
22166;SDS011;11249;52.468;13.776;2022-09-27T06:44:43;4.85;;;3.53;;
22166;SDS011;11249;52.468;13.776;2022-09-27T06:47:16;6.05;;;3.28;;
22166;SDS011;11249;52.468;13.776;2022-09-27T06:49:42;4.78;;;3.22;;
22166;SDS011;11249;52.468;13.776;2022-09-27T06:52:09;7.03;;;3.58;;
22166;SDS011;11249;52.468;13.776;2022-09-27T06:54:36;5.38;;;3.10;;
22166;SDS011;11249;52.468;13.776;2022-09-27T06:57:03;6.65;;;3.42;;
22166;SDS011;11249;52.468;13.776;2022-09-27T06:59:30;4.53;;;3.30;;
22166;SDS011;11249;52.468;13.776;2022-09-27T07:02:15;7.78;;;3.55;;
22166;SDS011;11249;52.468;13.776;2022-09-27T07:04:42;3.85;;;3.45;;
22166;SDS011;11249;52.468;13.776;2022-09-27T07:07:09;4.47;;;3.25;;
22166;SDS011;11249;52.468;13.776;2022-09-27T07:09:36;4.68;;;3.38;;
22166;SDS011;11249;52.468;13.776;2022-09-27T07:12:05;9.70;;;3.65;;
22166;SDS011;11249;52.468;13.776;2022-09-27T07:14:32;6.68;;;3.85;;
22166;SDS011;11249;52.468;13.776;2022-09-27T07:17:23;5.05;;;3.97;;
22166;SDS011;11249;52.468;13.776;2022-09-27T07:19:50;5.93;;;3.50;;
22166;SDS011;11249;52.468;13.776;2022-09-27T07:22:16;7.05;;;3.83;;
22166;SDS011;11249;52.468;13.776;2022-09-27T07:24:43;6.80;;;4.25;;
22166;SDS011;11249;52.468;13.776;2022-09-27T07:27:10;4.20;;;3.55;;
22166;SDS011;11249;52.468;13.776;2022-09-27T07:29:36;4.30;;;3.53;;
22166;SDS011;11249;52.468;13.776;2022-09-27T07:32:03;7.47;;;3.55;;
22166;SDS011;11249;52.468;13.776;2022-09-27T07:34:31;6.68;;;3.67;;
22166;SDS011;11249;52.468;13.776;2022-09-27T07:36:59;5.45;;;3.83;;
22166;SDS011;11249;52.468;13.776;2022-09-27T07:39:26;5.45;;;3.72;;
22166;SDS011;11249;52.468;13.776;2022-09-27T07:41:53;4.03;;;3.35;;
22166;SDS011;11249;52.468;13.776;2022-09-27T07:44:20;8.13;;;4.30;;
22166;SDS011;11249;52.468;13.776;2022-09-27T07:46:46;6.18;;;3.90;;
22166;SDS011;11249;52.468;13.776;2022-09-27T07:49:13;5.15;;;3.85;;
22166;SDS011;11249;52.468;13.776;2022-09-27T07:51:40;6.82;;;4.28;;
22166;SDS011;11249;52.468;13.776;2022-09-27T07:54:06;5.28;;;4.10;;
22166;SDS011;11249;52.468;13.776;2022-09-27T07:56:34;8.10;;;4.80;;
22166;SDS011;11249;52.468;13.776;2022-09-27T07:59:01;5.30;;;4.80;;
22166;SDS011;11249;52.468;13.776;2022-09-27T08:01:27;6.30;;;4.10;;
22166;SDS011;11249;52.468;13.776;2022-09-27T08:03:54;5.72;;;4.57;;
22166;SDS011;11249;52.468;13.776;2022-09-27T08:06:24;7.32;;;4.40;;
22166;SDS011;11249;52.468;13.776;2022-09-27T08:08:50;5.43;;;4.20;;
22166;SDS011;11249;52.468;13.776;2022-09-27T08:11:17;5.68;;;4.63;;
22166;SDS011;11249;52.468;13.776;2022-09-27T08:13:44;5.88;;;4.38;;
22166;SDS011;11249;52.468;13.776;2022-09-27T08:16:11;7.43;;;4.38;;
22166;SDS011;11249;52.468;13.776;2022-09-27T08:18:39;6.25;;;4.68;;
22166;SDS011;11249;52.468;13.776;2022-09-27T08:21:06;5.80;;;4.13;;
22166;SDS011;11249;52.468;13.776;2022-09-27T08:23:33;4.53;;;3.95;;
22166;SDS011;11249;52.468;13.776;2022-09-27T08:26:00;5.55;;;4.40;;
22166;SDS011;11249;52.468;13.776;2022-09-27T08:28:26;4.35;;;3.75;;
22166;SDS011;11249;52.468;13.776;2022-09-27T08:30:53;5.07;;;4.63;;
22166;SDS011;11249;52.468;13.776;2022-09-27T08:33:22;5.05;;;4.13;;
22166;SDS011;11249;52.468;13.776;2022-09-27T08:35:57;5.53;;;4.40;;
22166;SDS011;11249;52.468;13.776;2022-09-27T08:38:23;5.45;;;4.43;;
22166;SDS011;11249;52.468;13.776;2022-09-27T08:43:33;5.45;;;4.30;;
22166;SDS011;11249;52.468;13.776;2022-09-27T08:46:21;4.13;;;3.65;;
22166;SDS011;11249;52.468;13.776;2022-09-27T08:49:13;5.25;;;3.83;;
22166;SDS011;11249;52.468;13.776;2022-09-27T08:51:44;5.95;;;4.43;;
22166;SDS011;11249;52.468;13.776;2022-09-27T08:54:23;7.47;;;4.20;;
22166;SDS011;11249;52.468;13.776;2022-09-27T08:56:59;5.18;;;3.60;;
22166;SDS011;11249;52.468;13.776;2022-09-27T08:59:34;4.03;;;3.50;;
22166;SDS011;11249;52.468;13.776;2022-09-27T09:02:27;6.30;;;3.97;;
22166;SDS011;11249;52.468;13.776;2022-09-27T09:04:55;5.13;;;3.45;;
22166;SDS011;11249;52.468;13.776;2022-09-27T09:07:30;5.65;;;3.63;;
22166;SDS011;11249;52.468;13.776;2022-09-27T09:10:23;4.65;;;4.03;;
22166;SDS011;11249;52.468;13.776;2022-09-27T09:13:30;5.57;;;3.60;;
22166;SDS011;11249;52.468;13.776;2022-09-27T09:16:16;4.00;;;3.70;;
22166;SDS011;11249;52.468;13.776;2022-09-27T09:19:23;5.75;;;3.58;;
22166;SDS011;11249;52.468;13.776;2022-09-27T09:22:11;4.75;;;3.72;;
22166;SDS011;11249;52.468;13.776;2022-09-27T09:25:09;5.68;;;3.33;;
22166;SDS011;11249;52.468;13.776;2022-09-27T09:27:40;3.42;;;3.10;;
22166;SDS011;11249;52.468;13.776;2022-09-27T09:30:30;4.45;;;3.55;;
22166;SDS011;11249;52.468;13.776;2022-09-27T09:33:18;4.45;;;3.45;;
22166;SDS011;11249;52.468;13.776;2022-09-27T09:38:32;3.58;;;3.22;;
22166;SDS011;11249;52.468;13.776;2022-09-27T09:43:56;3.58;;;3.15;;
22166;SDS011;11249;52.468;13.776;2022-09-27T09:46:40;3.47;;;3.17;;
22166;SDS011;11249;52.468;13.776;2022-09-27T09:49:16;3.80;;;3.50;;
22166;SDS011;11249;52.468;13.776;2022-09-27T09:51:58;3.03;;;2.80;;
22166;SDS011;11249;52.468;13.776;2022-09-27T09:54:56;3.15;;;2.85;;
22166;SDS011;11249;52.468;13.776;2022-09-27T10:00:05;2.90;;;2.58;;
22166;SDS011;11249;52.468;13.776;2022-09-27T10:02:42;3.00;;;2.70;;
22166;SDS011;11249;52.468;13.776;2022-09-27T10:05:28;2.55;;;2.35;;
22166;SDS011;11249;52.468;13.776;2022-09-27T10:07:57;3.05;;;2.75;;
22166;SDS011;11249;52.468;13.776;2022-09-27T10:10:25;3.08;;;2.72;;
22166;SDS011;11249;52.468;13.776;2022-09-27T10:12:53;4.07;;;2.50;;
22166;SDS011;11249;52.468;13.776;2022-09-27T10:15:22;2.60;;;2.40;;
22166;SDS011;11249;52.468;13.776;2022-09-27T10:17:52;3.20;;;2.90;;
22166;SDS011;11249;52.468;13.776;2022-09-27T10:20:24;3.38;;;1.95;;
22166;SDS011;11249;52.468;13.776;2022-09-27T10:22:53;2.67;;;2.13;;
22166;SDS011;11249;52.468;13.776;2022-09-27T10:25:24;4.05;;;2.47;;
22166;SDS011;11249;52.468;13.776;2022-09-27T10:27:53;3.03;;;2.20;;
22166;SDS011;11249;52.468;13.776;2022-09-27T10:30:28;2.53;;;2.30;;
22166;SDS011;11249;52.468;13.776;2022-09-27T10:32:58;3.28;;;2.20;;
22166;SDS011;11249;52.468;13.776;2022-09-27T10:35:33;1.75;;;1.65;;
22166;SDS011;11249;52.468;13.776;2022-09-27T10:38:21;3.47;;;2.10;;
22166;SDS011;11249;52.468;13.776;2022-09-27T10:40:53;2.30;;;2.10;;
22166;SDS011;11249;52.468;13.776;2022-09-27T10:43:26;2.35;;;2.00;;
22166;SDS011;11249;52.468;13.776;2022-09-27T10:45:58;2.38;;;2.10;;
22166;SDS011;11249;52.468;13.776;2022-09-27T10:48:31;3.28;;;1.98;;
22166;SDS011;11249;52.468;13.776;2022-09-27T10:50:58;2.53;;;2.33;;
22166;SDS011;11249;52.468;13.776;2022-09-27T10:53:27;2.90;;;2.20;;
22166;SDS011;11249;52.468;13.776;2022-09-27T10:55:56;2.65;;;2.10;;
22166;SDS011;11249;52.468;13.776;2022-09-27T10:58:26;3.75;;;2.42;;
22166;SDS011;11249;52.468;13.776;2022-09-27T11:01:02;2.38;;;2.17;;
22166;SDS011;11249;52.468;13.776;2022-09-27T11:03:32;2.25;;;2.05;;
22166;SDS011;11249;52.468;13.776;2022-09-27T11:08:49;2.20;;;2.00;;
22166;SDS011;11249;52.468;13.776;2022-09-27T11:11:26;2.80;;;2.10;;
22166;SDS011;11249;52.468;13.776;2022-09-27T11:14:00;2.28;;;2.05;;
22166;SDS011;11249;52.468;13.776;2022-09-27T11:19:25;2.88;;;1.55;;
22166;SDS011;11249;52.468;13.776;2022-09-27T11:25:06;2.33;;;1.88;;
22166;SDS011;11249;52.468;13.776;2022-09-27T11:33:26;1.77;;;1.58;;
22166;SDS011;11249;52.468;13.776;2022-09-27T11:36:08;3.13;;;1.60;;
22166;SDS011;11249;52.468;13.776;2022-09-27T11:44:43;2.65;;;1.60;;
22166;SDS011;11249;52.468;13.776;2022-09-27T11:47:58;1.90;;;1.60;;
22166;SDS011;11249;52.468;13.776;2022-09-27T12:02:03;4.38;;;1.58;;
22166;SDS011;11249;52.468;13.776;2022-09-27T12:07:27;2.63;;;1.40;;
22166;SDS011;11249;52.468;13.776;2022-09-27T12:10:23;1.63;;;1.50;;
22166;SDS011;11249;52.468;13.776;2022-09-27T12:12:50;2.55;;;1.52;;
22166;SDS011;11249;52.468;13.776;2022-09-27T12:15:21;3.00;;;1.58;;
22166;SDS011;11249;52.468;13.776;2022-09-27T12:17:57;3.53;;;1.30;;
22166;SDS011;11249;52.468;13.776;2022-09-27T12:20:38;2.45;;;1.30;;
22166;SDS011;11249;52.468;13.776;2022-09-27T12:23:10;2.60;;;1.50;;
22166;SDS011;11249;52.468;13.776;2022-09-27T12:26:03;1.45;;;0.93;;
22166;SDS011;11249;52.468;13.776;2022-09-27T12:31:30;1.13;;;0.80;;
22166;SDS011;11249;52.468;13.776;2022-09-27T12:37:09;1.02;;;0.93;;
22166;SDS011;11249;52.468;13.776;2022-09-27T12:42:40;2.10;;;1.17;;
22166;SDS011;11249;52.468;13.776;2022-09-27T12:45:14;2.88;;;1.13;;
22166;SDS011;11249;52.468;13.776;2022-09-27T12:48:00;2.00;;;1.33;;
22166;SDS011;11249;52.468;13.776;2022-09-27T12:53:02;3.28;;;1.27;;
22166;SDS011;11249;52.468;13.776;2022-09-27T12:56:31;2.40;;;1.30;;
22166;SDS011;11249;52.468;13.776;2022-09-27T12:58:53;2.80;;;1.20;;
22166;SDS011;11249;52.468;13.776;2022-09-27T13:01:34;2.22;;;1.52;;
22166;SDS011;11249;52.468;13.776;2022-09-27T13:04:47;4.22;;;1.70;;
22166;SDS011;11249;52.468;13.776;2022-09-27T13:07:29;2.67;;;1.67;;
22166;SDS011;11249;52.468;13.776;2022-09-27T13:13:09;2.95;;;1.65;;
22166;SDS011;11249;52.468;13.776;2022-09-27T13:15:38;3.15;;;2.05;;
22166;SDS011;11249;52.468;13.776;2022-09-27T13:20:53;3.60;;;1.70;;
22166;SDS011;11249;52.468;13.776;2022-09-27T13:25:48;4.00;;;1.75;;
22166;SDS011;11249;52.468;13.776;2022-09-27T13:30:54;4.03;;;1.75;;
22166;SDS011;11249;52.468;13.776;2022-09-27T13:36:24;2.72;;;1.80;;
22166;SDS011;11249;52.468;13.776;2022-09-27T13:38:59;3.33;;;1.70;;
22166;SDS011;11249;52.468;13.776;2022-09-27T13:47:33;3.47;;;1.55;;
22166;SDS011;11249;52.468;13.776;2022-09-27T13:50:24;3.63;;;1.83;;
22166;SDS011;11249;52.468;13.776;2022-09-27T13:52:59;3.95;;;2.00;;
22166;SDS011;11249;52.468;13.776;2022-09-27T13:55:51;1.77;;;1.40;;
22166;SDS011;11249;52.468;13.776;2022-09-27T14:01:32;5.13;;;1.98;;
22166;SDS011;11249;52.468;13.776;2022-09-27T14:04:25;2.80;;;1.48;;
22166;SDS011;11249;52.468;13.776;2022-09-27T14:07:00;3.28;;;1.90;;
22166;SDS011;11249;52.468;13.776;2022-09-27T14:09:33;3.03;;;1.48;;
22166;SDS011;11249;52.468;13.776;2022-09-27T14:12:07;2.35;;;1.25;;
22166;SDS011;11249;52.468;13.776;2022-09-27T14:14:37;2.58;;;1.75;;
22166;SDS011;11249;52.468;13.776;2022-09-27T14:17:06;2.00;;;1.50;;
22166;SDS011;11249;52.468;13.776;2022-09-27T14:19:37;2.13;;;1.92;;
22166;SDS011;11249;52.468;13.776;2022-09-27T14:22:13;1.88;;;1.48;;
22166;SDS011;11249;52.468;13.776;2022-09-27T14:27:11;2.08;;;1.88;;
22166;SDS011;11249;52.468;13.776;2022-09-27T14:29:53;1.75;;;1.45;;
22166;SDS011;11249;52.468;13.776;2022-09-27T14:32:25;2.30;;;1.70;;
22166;SDS011;11249;52.468;13.776;2022-09-27T14:35:14;2.00;;;1.80;;
22166;SDS011;11249;52.468;13.776;2022-09-27T14:38:02;4.20;;;2.00;;
22166;SDS011;11249;52.468;13.776;2022-09-27T14:41:00;2.90;;;2.15;;
22166;SDS011;11249;52.468;13.776;2022-09-27T14:43:29;2.28;;;2.08;;
22166;SDS011;11249;52.468;13.776;2022-09-27T14:46:05;3.58;;;2.33;;
22166;SDS011;11249;52.468;13.776;2022-09-27T14:48:34;3.38;;;2.20;;
22166;SDS011;11249;52.468;13.776;2022-09-27T14:51:27;3.72;;;2.28;;
22166;SDS011;11249;52.468;13.776;2022-09-27T14:53:56;2.38;;;2.00;;
22166;SDS011;11249;52.468;13.776;2022-09-27T14:56:32;4.13;;;2.33;;
22166;SDS011;11249;52.468;13.776;2022-09-27T15:01:36;3.53;;;2.03;;
22166;SDS011;11249;52.468;13.776;2022-09-27T15:04:05;2.33;;;1.98;;
22166;SDS011;11249;52.468;13.776;2022-09-27T15:06:39;2.17;;;1.90;;
22166;SDS011;11249;52.468;13.776;2022-09-27T15:09:06;3.40;;;2.05;;
22166;SDS011;11249;52.468;13.776;2022-09-27T15:11:35;2.60;;;2.00;;
22166;SDS011;11249;52.468;13.776;2022-09-27T15:14:04;2.50;;;2.22;;
22166;SDS011;11249;52.468;13.776;2022-09-27T15:16:36;3.97;;;2.35;;
22166;SDS011;11249;52.468;13.776;2022-09-27T15:19:13;2.53;;;2.25;;
22166;SDS011;11249;52.468;13.776;2022-09-27T15:21:47;2.10;;;1.92;;
22166;SDS011;11249;52.468;13.776;2022-09-27T15:27:04;2.15;;;2.00;;
22166;SDS011;11249;52.468;13.776;2022-09-27T15:29:49;2.60;;;2.30;;
22166;SDS011;11249;52.468;13.776;2022-09-27T15:32:19;3.77;;;2.10;;
22166;SDS011;11249;52.468;13.776;2022-09-27T15:34:47;3.25;;;2.05;;
22166;SDS011;11249;52.468;13.776;2022-09-27T15:37:25;2.70;;;2.25;;
22166;SDS011;11249;52.468;13.776;2022-09-27T15:39:52;3.03;;;2.28;;
22166;SDS011;11249;52.468;13.776;2022-09-27T15:42:57;2.30;;;2.10;;
22166;SDS011;11249;52.468;13.776;2022-09-27T15:45:28;2.92;;;2.20;;
22166;SDS011;11249;52.468;13.776;2022-09-27T15:48:13;2.88;;;2.20;;
22166;SDS011;11249;52.468;13.776;2022-09-27T15:50:41;3.30;;;2.00;;
22166;SDS011;11249;52.468;13.776;2022-09-27T15:53:09;2.75;;;2.45;;
22166;SDS011;11249;52.468;13.776;2022-09-27T15:55:42;3.78;;;2.78;;
22166;SDS011;11249;52.468;13.776;2022-09-27T15:58:15;3.10;;;2.80;;
22166;SDS011;11249;52.468;13.776;2022-09-27T16:00:58;2.65;;;2.45;;
22166;SDS011;11249;52.468;13.776;2022-09-27T16:03:31;5.50;;;3.05;;
22166;SDS011;11249;52.468;13.776;2022-09-27T16:05:58;9.82;;;8.15;;
22166;SDS011;11249;52.468;13.776;2022-09-27T16:08:27;11.43;;;6.55;;
22166;SDS011;11249;52.468;13.776;2022-09-27T16:10:55;5.30;;;3.50;;
22166;SDS011;11249;52.468;13.776;2022-09-27T16:13:23;7.85;;;5.65;;
22166;SDS011;11249;52.468;13.776;2022-09-27T16:15:57;7.72;;;4.75;;
22166;SDS011;11249;52.468;13.776;2022-09-27T16:18:24;8.45;;;5.88;;
22166;SDS011;11249;52.468;13.776;2022-09-27T16:20:56;8.05;;;6.20;;
22166;SDS011;11249;52.468;13.776;2022-09-27T16:23:23;7.32;;;5.43;;
22166;SDS011;11249;52.468;13.776;2022-09-27T16:25:51;7.68;;;6.45;;
22166;SDS011;11249;52.468;13.776;2022-09-27T16:28:18;11.30;;;9.60;;
22166;SDS011;11249;52.468;13.776;2022-09-27T16:30:45;13.00;;;8.25;;
22166;SDS011;11249;52.468;13.776;2022-09-27T16:33:13;5.15;;;4.47;;
22166;SDS011;11249;52.468;13.776;2022-09-27T16:35:39;5.60;;;4.32;;
22166;SDS011;11249;52.468;13.776;2022-09-27T16:38:06;5.07;;;4.35;;
22166;SDS011;11249;52.468;13.776;2022-09-27T16:40:33;6.05;;;4.45;;
22166;SDS011;11249;52.468;13.776;2022-09-27T16:43:02;5.82;;;4.53;;
22166;SDS011;11249;52.468;13.776;2022-09-27T16:45:32;6.18;;;4.70;;
22166;SDS011;11249;52.468;13.776;2022-09-27T16:48:01;7.40;;;6.37;;
22166;SDS011;11249;52.468;13.776;2022-09-27T16:50:28;8.52;;;5.75;;
22166;SDS011;11249;52.468;13.776;2022-09-27T16:53:13;7.50;;;6.18;;
22166;SDS011;11249;52.468;13.776;2022-09-27T16:55:40;7.13;;;6.13;;
22166;SDS011;11249;52.468;13.776;2022-09-27T16:58:07;6.75;;;5.78;;
22166;SDS011;11249;52.468;13.776;2022-09-27T17:00:34;8.00;;;5.63;;
22166;SDS011;11249;52.468;13.776;2022-09-27T17:03:01;7.75;;;6.15;;
22166;SDS011;11249;52.468;13.776;2022-09-27T17:05:27;8.15;;;7.05;;
22166;SDS011;11249;52.468;13.776;2022-09-27T17:07:54;7.18;;;5.38;;
22166;SDS011;11249;52.468;13.776;2022-09-27T17:10:21;5.38;;;4.80;;